YIMA weather

Imanpa Airport
Northern Territory, Australia

Public forecast

Using degrees Celsius for public forecast. Weather courtesy of forecast.io.

METAR (pilot weather report)

Closest report is Ayers Rock Connellan Airport, 86.7 nm (160.5 km) W. Retrieved 2019/03/20 13:00 UTC (4 minutes ago):

YAYE 201300Z AUTO 09006KT 9999 // NCD 30/04 Q1014

TAF (pilot weather forecast)

Closest forecast is Alice Springs Airport, 107.9 nm (199.8 km) NE. Retrieved 2019/03/20 12:00 UTC (1 hour ago):

TAF YBAS 201131Z 2012/2112 12006KT CAVOK FM201800 30005KT CAVOK FM210000 12014KT CAVOK FM210900 12005KT CAVOK